Time;durP1;ratioP1;P1;durP2;ratioP2;P2;SDS_P1;SDS_P2;PMS_P1;PMS_P2;Temp;Humidity;BMP_temperature;BMP_pressure;BME280_temperature;BME280_humidity;BME280_pressure;Samples;Min_cycle;Max_cycle;Signal;HPM_P1;HPM_P2
2022/02/15 00:00:21;;;;;;;1.08;0.85;;;7.10;18.10;;;;;;7368864;19;20528;-59
2022/02/15 00:02:51;;;;;;;1.25;1.00;;;7.10;17.80;;;;;;7365311;19;20030;-60
2022/02/15 00:05:21;;;;;;;1.58;1.00;;;7.10;18.10;;;;;;7388423;19;20459;-59
2022/02/15 00:07:51;;;;;;;2.65;1.08;;;7.00;18.10;;;;;;7364583;19;20031;-59
2022/02/15 00:10:21;;;;;;;1.08;0.85;;;7.10;17.40;;;;;;7369259;19;20010;-59
2022/02/15 00:12:55;;;;;;;;;;;7.00;18.30;;;;;;7367637;19;20014;-61
2022/02/15 00:15:28;;;;;;;1.20;0.93;;;7.00;18.50;;;;;;7368706;19;19921;-59
2022/02/15 00:17:58;;;;;;;2.67;1.20;;;6.90;19.10;;;;;;7362138;19;20018;-59
2022/02/15 00:20:29;;;;;;;0.80;0.70;;;6.90;18.40;;;;;;7388521;19;20073;-59
2022/02/15 00:22:59;;;;;;;1.30;0.75;;;6.90;18.40;;;;;;7366745;19;20110;-59
2022/02/15 00:25:29;;;;;;;0.93;0.75;;;6.90;18.90;;;;;;7367429;19;20016;-59
2022/02/15 00:27:59;;;;;;;2.15;1.00;;;6.90;18.60;;;;;;7362523;19;20006;-59
2022/02/15 00:30:32;;;;;;;1.23;0.95;;;6.90;18.50;;;;;;7369471;19;20118;-60
2022/02/15 00:33:01;;;;;;;1.88;0.98;;;6.90;18.10;;;;;;7365514;19;20006;-60
2022/02/15 00:35:32;;;;;;;2.03;1.17;;;6.80;18.70;;;;;;7387996;19;20420;-60
2022/02/15 00:38:02;;;;;;;1.35;0.90;;;6.80;19.20;;;;;;7362943;19;20046;-59
2022/02/15 00:40:32;;;;;;;1.38;1.00;;;6.70;19.60;;;;;;7366092;19;20014;-59
2022/02/15 00:43:02;;;;;;;3.38;1.20;;;6.70;19.80;;;;;;7364295;19;20010;-59
2022/02/15 00:45:35;;;;;;;1.63;1.00;;;6.70;20.20;;;;;;7367285;19;20021;-59
2022/02/15 00:48:05;;;;;;;3.27;1.10;;;6.60;20.60;;;;;;7361597;19;20099;-60
2022/02/15 00:50:37;;;;;;;2.65;1.20;;;6.60;20.60;;;;;;7388808;19;20066;-60
2022/02/15 00:53:07;;;;;;;2.65;1.00;;;6.60;20.60;;;;;;7366168;19;20024;-60
2022/02/15 00:55:37;;;;;;;1.25;0.75;;;6.60;20.20;;;;;;7366555;19;20078;-60
2022/02/15 00:58:07;;;;;;;2.05;0.60;;;6.60;20.50;;;;;;7361986;19;20023;-60
2022/02/15 01:00:39;;;;;;;1.65;0.70;;;6.60;20.60;;;;;;7367730;19;20094;-58
2022/02/15 01:03:09;;;;;;;4.00;1.08;;;6.50;20.50;;;;;;7364743;19;20522;-60
2022/02/15 01:05:39;;;;;;;1.77;0.80;;;6.60;20.60;;;;;;7385966;19;20078;-59
2022/02/15 01:08:12;;;;;;;1.25;0.80;;;6.50;20.50;;;;;;7362416;19;20092;-59
2022/02/15 01:10:42;;;;;;;3.25;1.30;;;6.50;20.60;;;;;;7368239;19;20030;-59
2022/02/15 01:13:11;;;;;;;1.20;0.90;;;6.50;20.60;;;;;;7364261;19;20023;-60
2022/02/15 01:15:46;;;;;;;1.77;0.90;;;6.50;20.60;;;;;;7365999;19;20090;-59
2022/02/15 01:18:17;;;;;;;1.75;1.25;;;6.50;20.50;;;;;;7361130;19;20069;-59
2022/02/15 01:20:47;;;;;;;1.55;1.15;;;6.50;20.50;;;;;;7364709;19;20024;-60
2022/02/15 01:23:17;;;;;;;1.75;1.33;;;6.50;20.50;;;;;;7387967;19;20015;-59
2022/02/15 01:25:47;;;;;;;1.98;0.85;;;6.40;20.50;;;;;;7364797;19;20022;-59
2022/02/15 01:28:17;;;;;;;2.22;0.80;;;6.40;20.50;;;;;;7359931;19;20510;-59
2022/02/15 01:30:50;;;;;;;1.30;0.98;;;6.40;20.50;;;;;;7368425;19;20006;-59
2022/02/15 01:33:20;;;;;;;1.42;0.80;;;6.40;20.90;;;;;;7365186;19;20035;-59
2022/02/15 01:35:50;;;;;;;2.25;0.90;;;6.40;21.10;;;;;;7362571;19;20131;-59
2022/02/15 01:38:20;;;;;;;3.03;0.93;;;6.30;21.00;;;;;;7385338;19;20015;-59
2022/02/15 01:40:50;;;;;;;1.55;0.90;;;6.40;20.90;;;;;;7364587;19;20088;-59
2022/02/15 01:43:20;;;;;;;2.17;0.90;;;6.30;21.00;;;;;;7362468;19;20110;-59
2022/02/15 01:45:53;;;;;;;1.83;1.15;;;6.30;21.10;;;;;;7365793;19;20011;-59
2022/02/15 01:48:22;;;;;;;1.23;0.90;;;6.30;21.10;;;;;;7361464;19;20054;-59
2022/02/15 01:50:52;;;;;;;1.15;0.75;;;6.30;20.70;;;;;;7364230;19;20718;-59
2022/02/15 01:53:22;;;;;;;3.08;1.80;;;6.20;21.10;;;;;;7386783;19;20014;-59
2022/02/15 01:55:52;;;;;;;5.18;1.73;;;6.20;21.70;;;;;;7362168;19;20098;-58
2022/02/15 01:58:22;;;;;;;2.40;1.30;;;6.10;22.00;;;;;;7361050;19;20014;-59
2022/02/15 02:00:55;;;;;;;3.63;1.42;;;6.20;22.30;;;;;;7366399;19;20022;-59
2022/02/15 02:03:25;;;;;;;1.40;0.98;;;6.10;22.10;;;;;;7364152;19;20011;-60
2022/02/15 02:05:55;;;;;;;1.88;1.30;;;6.10;21.90;;;;;;7360457;19;20359;-59
2022/02/15 02:08:28;;;;;;;2.08;1.20;;;6.10;22.80;;;;;;7384742;19;20011;-59
2022/02/15 02:11:00;;;;;;;1.83;1.15;;;6.00;22.70;;;;;;7361424;19;20037;-60
2022/02/15 02:13:30;;;;;;;1.70;1.30;;;6.10;22.90;;;;;;7361600;19;20014;-60
2022/02/15 02:16:03;;;;;;;2.95;1.60;;;6.00;22.80;;;;;;7363779;19;20589;-60
2022/02/15 02:18:33;;;;;;;2.75;1.50;;;6.00;23.20;;;;;;7361756;19;20007;-60
2022/02/15 02:21:06;;;;;;;1.67;1.23;;;6.00;23.50;;;;;;7361831;19;20012;-60
2022/02/15 02:23:36;;;;;;;2.72;1.23;;;6.00;23.60;;;;;;7386510;19;20104;-60
2022/02/15 02:26:06;;;;;;;1.92;1.30;;;5.90;23.60;;;;;;7360547;19;20040;-60
2022/02/15 02:28:37;;;;;;;1.92;1.20;;;6.00;23.70;;;;;;7360306;19;20097;-60
2022/02/15 02:31:07;;;;;;;2.80;1.25;;;5.90;23.60;;;;;;7363410;19;20074;-59
2022/02/15 02:33:37;;;;;;;3.97;1.20;;;6.00;23.30;;;;;;7363790;19;20010;-60
2022/02/15 02:36:11;;;;;;;1.85;1.15;;;5.90;23.60;;;;;;7360520;19;20097;-60
2022/02/15 02:38:41;;;;;;;1.98;1.40;;;5.90;23.60;;;;;;7384408;19;20015;-60
2022/02/15 02:41:12;;;;;;;1.85;1.50;;;5.90;23.60;;;;;;7361245;19;20461;-60
2022/02/15 02:43:42;;;;;;;1.77;1.20;;;5.90;23.60;;;;;;7361907;19;20018;-60
2022/02/15 02:46:12;;;;;;;1.95;1.52;;;6.00;23.70;;;;;;7362374;19;20475;-59
2022/02/15 02:48:44;;;;;;;3.30;1.50;;;6.00;23.50;;;;;;7361083;19;20396;-60
2022/02/15 02:51:17;;;;;;;3.00;1.63;;;6.00;22.90;;;;;;7361621;19;20078;-59
2022/02/15 02:53:47;;;;;;;4.00;1.42;;;6.10;22.60;;;;;;7363684;19;20470;-59
2022/02/15 02:56:17;;;;;;;6.80;2.33;;;6.00;22.80;;;;;;7376815;19;20010;-60
2022/02/15 02:58:47;;;;;;;5.55;1.67;;;6.10;22.60;;;;;;7356949;19;20014;-60
2022/02/15 03:01:16;;;;;;;2.75;1.95;;;6.10;22.30;;;;;;7361538;19;20073;-59
2022/02/15 03:03:48;;;;;;;3.67;1.85;;;6.10;22.50;;;;;;7358875;19;20865;-60
2022/02/15 03:06:21;;;;;;;2.80;1.58;;;6.10;22.10;;;;;;7357527;19;20006;-60
2022/02/15 03:08:51;;;;;;;3.75;1.90;;;6.20;21.40;;;;;;7359465;19;20014;-60
2022/02/15 03:11:22;;;;;;;2.58;1.45;;;6.20;21.30;;;;;;7381236;19;20093;-59
2022/02/15 03:13:51;;;;;;;4.28;1.60;;;6.20;21.40;;;;;;7361550;19;20082;-59
2022/02/15 03:16:23;;;;;;;4.43;1.90;;;6.20;21.50;;;;;;7361002;19;20026;-60
2022/02/15 03:18:53;;;;;;;3.47;1.40;;;6.20;21.40;;;;;;7360487;19;20006;-59
2022/02/15 03:21:26;;;;;;;3.58;1.35;;;6.20;20.70;;;;;;7359470;19;20102;-60
2022/02/15 03:23:58;;;;;;;2.42;1.52;;;6.20;20.40;;;;;;7363448;19;20491;-60
2022/02/15 03:26:29;;;;;;;3.17;1.50;;;6.20;20.40;;;;;;7379053;19;20010;-60
2022/02/15 03:28:59;;;;;;;3.65;1.90;;;6.20;20.30;;;;;;7359526;19;20094;-60
2022/02/15 03:31:29;;;;;;;4.00;1.30;;;6.20;20.30;;;;;;7360214;19;20115;-60
2022/02/15 03:33:59;;;;;;;3.47;1.52;;;6.20;19.80;;;;;;7363458;19;20020;-60
2022/02/15 03:36:32;;;;;;;5.35;1.52;;;6.20;19.70;;;;;;7358584;19;20078;-59
2022/02/15 03:39:03;;;;;;;2.67;1.30;;;6.20;19.10;;;;;;7361139;19;20014;-60
2022/02/15 03:44:15;;;;;;;2.72;1.55;;;6.20;19.20;;;;;;7361198;19;20034;-60
2022/02/15 03:46:45;;;;;;;2.80;1.27;;;6.20;19.30;;;;;;7359973;19;20015;-60
2022/02/15 03:49:15;;;;;;;4.10;1.50;;;6.20;18.30;;;;;;7361218;19;20014;-61
2022/02/15 03:51:48;;;;;;;2.45;1.10;;;6.20;18.20;;;;;;7358540;19;20317;-61
2022/02/15 03:54:18;;;;;;;1.55;1.25;;;6.20;17.80;;;;;;7363583;19;20023;-59
2022/02/15 03:56:48;;;;;;;1.67;1.05;;;6.20;18.10;;;;;;7356197;19;20044;-59
2022/02/15 03:59:19;;;;;;;3.05;1.25;;;6.20;18.20;;;;;;7382188;19;20078;-61
2022/02/15 04:01:49;;;;;;;3.80;1.75;;;6.20;18.50;;;;;;7358579;19;20018;-59
2022/02/15 04:04:19;;;;;;;4.70;1.30;;;6.20;18.50;;;;;;7362105;19;20035;-60
2022/02/15 04:06:53;;;;;;;3.15;1.70;;;6.20;17.90;;;;;;7357375;19;20021;-60
2022/02/15 04:09:23;;;;;;;2.78;1.20;;;6.20;18.10;;;;;;7361574;19;20479;-60
2022/02/15 04:11:53;;;;;;;2.58;1.42;;;6.20;18.60;;;;;;7359773;19;20014;-61
2022/02/15 04:14:22;;;;;;;2.70;1.20;;;6.20;19.00;;;;;;7381396;19;20039;-59
2022/02/15 04:16:52;;;;;;;4.65;1.40;;;6.20;18.60;;;;;;7365190;19;20014;-59
2022/02/15 04:19:22;;;;;;;3.90;1.70;;;6.20;18.20;;;;;;7368401;19;20053;-59
2022/02/15 04:21:56;;;;;;;2.92;1.50;;;6.20;17.80;;;;;;7363839;19;20449;-59
2022/02/15 04:24:26;;;;;;;5.03;1.95;;;6.20;17.60;;;;;;7369248;19;20078;-60
2022/02/15 04:26:56;;;;;;;3.13;1.35;;;6.20;17.20;;;;;;7361851;19;20021;-60
2022/02/15 04:29:26;;;;;;;2.42;1.40;;;6.20;17.30;;;;;;7386825;19;20017;-60
2022/02/15 04:31:56;;;;;;;3.63;1.35;;;6.20;18.00;;;;;;7365366;19;20082;-60
2022/02/15 04:34:25;;;;;;;1.98;1.30;;;6.20;17.90;;;;;;7365985;19;20017;-59
2022/02/15 04:36:58;;;;;;;4.50;2.03;;;6.20;18.10;;;;;;7363344;19;20006;-58
2022/02/15 04:39:28;;;;;;;4.32;1.38;;;6.10;18.70;;;;;;7367069;19;20020;-60
2022/02/15 04:41:58;;;;;;;2.88;1.48;;;6.10;18.70;;;;;;7364650;19;20470;-60
2022/02/15 04:44:28;;;;;;;4.10;1.70;;;6.20;18.50;;;;;;7387111;19;20025;-60
2022/02/15 04:46:59;;;;;;;3.30;1.83;;;6.20;17.90;;;;;;7363226;19;20011;-61
2022/02/15 04:49:30;;;;;;;2.58;1.38;;;6.20;16.90;;;;;;7367125;19;20010;-60
2022/02/15 04:52:03;;;;;;;5.60;2.53;;;6.20;16.90;;;;;;7362484;19;20439;-60
2022/02/15 04:54:33;;;;;;;3.13;1.52;;;6.20;16.80;;;;;;7368637;19;20003;-61
2022/02/15 04:57:03;;;;;;;3.92;2.20;;;6.20;16.80;;;;;;7361568;19;20017;-59
2022/02/15 04:59:33;;;;;;;2.75;1.77;;;6.10;16.80;;;;;;7386773;19;20035;-59
2022/02/15 05:02:02;;;;;;;4.32;1.52;;;6.20;16.60;;;;;;7364488;19;20011;-59
2022/02/15 05:07:18;;;;;;;8.27;1.52;;;6.10;16.90;;;;;;7361838;19;20089;-59
2022/02/15 05:09:48;;;;;;;2.10;1.30;;;6.00;17.60;;;;;;7366199;19;20017;-59
2022/02/15 05:12:19;;;;;;;4.38;1.67;;;6.00;17.60;;;;;;7364980;19;20486;-59
2022/02/15 05:14:49;;;;;;;4.93;1.48;;;6.10;16.80;;;;;;7364335;19;20007;-60
2022/02/15 05:17:19;;;;;;;5.28;1.80;;;6.20;16.90;;;;;;7384258;19;20025;-60
2022/02/15 05:19:48;;;;;;;4.65;1.42;;;6.20;16.60;;;;;;7366214;19;20006;-60
2022/02/15 05:22:21;;;;;;;2.08;1.10;;;6.30;16.40;;;;;;7362210;19;20494;-60
2022/02/15 05:24:51;;;;;;;3.25;1.30;;;6.20;16.20;;;;;;7366038;19;20350;-60
2022/02/15 05:27:21;;;;;;;4.72;1.50;;;6.20;16.30;;;;;;7362522;19;20455;-60
2022/02/15 05:29:50;;;;;;;2.08;1.10;;;6.30;15.50;;;;;;7363875;19;20013;-60
2022/02/15 05:32:20;;;;;;;3.45;1.33;;;6.30;15.60;;;;;;7384807;19;20021;-60
2022/02/15 05:34:50;;;;;;;4.32;1.83;;;6.30;15.50;;;;;;7366625;19;20382;-60
2022/02/15 05:37:22;;;;;;;3.67;1.65;;;6.40;15.30;;;;;;7360879;19;20010;-60
2022/02/15 05:39:52;;;;;;;3.03;1.40;;;6.40;15.10;;;;;;7365251;19;20017;-60
2022/02/15 05:42:22;;;;;;;3.28;1.30;;;6.40;14.60;;;;;;7363643;19;20487;-60
2022/02/15 05:44:52;;;;;;;1.92;1.00;;;6.40;14.00;;;;;;7363781;19;20010;-60
2022/02/15 05:47:22;;;;;;;3.17;1.13;;;6.40;13.60;;;;;;7383319;19;20015;-59
2022/02/15 05:52:43;;;;;;;2.25;1.15;;;6.40;14.40;;;;;;7359041;19;20011;-60
2022/02/15 05:55:14;;;;;;;5.65;1.40;;;6.50;14.60;;;;;;7365568;19;20015;-60
2022/02/15 05:57:45;;;;;;;2.63;1.30;;;6.50;14.30;;;;;;7362067;19;20018;-60
2022/02/15 06:00:17;;;;;;;4.13;1.08;;;6.50;14.40;;;;;;7364328;19;20007;-60
2022/02/15 06:02:48;;;;;;;3.78;1.40;;;6.50;13.70;;;;;;7360654;19;20006;-60
2022/02/15 06:05:18;;;;;;;8.68;1.88;;;6.50;14.20;;;;;;7385115;19;20593;-60
2022/02/15 06:07:50;;;;;;;2.83;1.40;;;6.50;14.60;;;;;;7358086;19;20484;-60
2022/02/15 06:10:20;;;;;;;7.35;1.63;;;6.50;14.40;;;;;;7363847;19;20019;-60
2022/02/15 06:12:50;;;;;;;4.20;1.40;;;6.50;14.10;;;;;;7362430;19;20451;-60
2022/02/15 06:15:20;;;;;;;2.42;1.20;;;6.50;14.40;;;;;;7362860;19;20017;-60
2022/02/15 06:17:50;;;;;;;2.60;1.52;;;6.50;14.10;;;;;;7359236;19;20018;-59
2022/02/15 06:20:20;;;;;;;4.88;1.48;;;6.50;14.40;;;;;;7386507;19;20081;-60
2022/02/15 06:22:52;;;;;;;4.72;1.40;;;6.50;13.90;;;;;;7358547;19;20684;-60
2022/02/15 06:25:22;;;;;;;5.32;1.65;;;6.50;14.20;;;;;;7363676;19;20510;-60
2022/02/15 06:27:52;;;;;;;6.75;1.85;;;6.60;14.40;;;;;;7360245;19;20125;-60
2022/02/15 06:30:22;;;;;;;3.45;1.60;;;6.50;14.00;;;;;;7362156;19;20126;-60
2022/02/15 06:32:52;;;;;;;6.40;1.75;;;6.50;14.40;;;;;;7359368;19;20018;-60
2022/02/15 06:35:23;;;;;;;3.88;1.70;;;6.60;14.30;;;;;;7385234;19;20022;-60
2022/02/15 06:38:00;;;;;;;5.65;1.80;;;6.60;14.60;;;;;;7353811;19;20101;-59
2022/02/15 06:40:30;;;;;;;2.60;1.40;;;6.60;14.80;;;;;;7363460;19;20014;-60
2022/02/15 06:43:00;;;;;;;5.70;1.98;;;6.60;14.10;;;;;;7360267;19;20014;-60
2022/02/15 06:45:30;;;;;;;4.38;1.85;;;6.60;14.40;;;;;;7362056;19;20010;-60
2022/02/15 06:48:00;;;;;;;3.95;1.80;;;6.60;14.50;;;;;;7358923;19;20015;-60
2022/02/15 06:50:30;;;;;;;3.45;1.70;;;6.60;14.80;;;;;;7387043;19;20022;-61
2022/02/15 06:53:04;;;;;;;3.88;1.77;;;6.60;14.80;;;;;;7356330;19;20085;-60
2022/02/15 06:55:54;;;;;;;6.13;2.40;;;6.60;14.40;;;;;;7359152;19;20006;-59
2022/02/15 06:58:29;;;;;;;4.35;1.70;;;6.50;14.20;;;;;;7360763;19;20015;-61
2022/02/15 07:00:58;;;;;;;4.07;1.48;;;6.60;14.90;;;;;;7361572;19;20458;-60
2022/02/15 07:03:28;;;;;;;4.07;1.58;;;6.50;15.40;;;;;;7362343;19;20006;-59
2022/02/15 07:05:58;;;;;;;5.95;1.88;;;6.50;16.60;;;;;;7358166;19;20049;-60
2022/02/15 07:08:31;;;;;;;3.55;2.10;;;6.40;17.30;;;;;;7379529;19;20574;-59
2022/02/15 07:11:01;;;;;;;3.47;1.70;;;6.40;18.10;;;;;;7358697;19;20015;-61
2022/02/15 07:13:31;;;;;;;4.30;1.80;;;6.30;18.40;;;;;;7364082;19;20010;-59
2022/02/15 07:16:00;;;;;;;4.38;1.85;;;6.30;19.10;;;;;;7358114;19;20006;-61
2022/02/15 07:18:30;;;;;;;6.05;1.77;;;6.30;19.60;;;;;;7359064;19;20018;-60
2022/02/15 07:21:00;;;;;;;5.05;2.00;;;6.30;19.80;;;;;;7360709;19;20025;-60
2022/02/15 07:23:33;;;;;;;3.53;1.85;;;6.20;20.20;;;;;;7382125;19;20011;-60
2022/02/15 07:26:03;;;;;;;4.35;2.40;;;6.20;20.40;;;;;;7356935;19;20024;-60
2022/02/15 07:28:33;;;;;;;5.60;1.63;;;6.30;20.40;;;;;;7360801;19;20397;-60
2022/02/15 07:31:03;;;;;;;10.55;2.00;;;6.30;20.40;;;;;;7356432;19;20101;-60
2022/02/15 07:33:33;;;;;;;4.75;1.75;;;6.40;20.20;;;;;;7361313;19;20012;-60
2022/02/15 07:36:02;;;;;;;3.08;1.90;;;6.40;20.10;;;;;;7360735;19;20078;-59
2022/02/15 07:38:35;;;;;;;5.10;1.88;;;6.40;19.20;;;;;;7379657;19;20511;-60
2022/02/15 07:41:05;;;;;;;1.70;1.20;;;6.40;18.90;;;;;;7355585;19;20007;-60
2022/02/15 07:43:35;;;;;;;1.60;1.35;;;6.50;18.00;;;;;;7361451;19;20010;-59
2022/02/15 07:46:06;;;;;;;2.85;1.30;;;6.50;17.90;;;;;;7356491;19;20011;-59
2022/02/15 07:48:37;;;;;;;3.22;1.40;;;6.60;17.50;;;;;;7359499;19;20428;-60
2022/02/15 07:51:07;;;;;;;1.85;1.20;;;6.60;17.20;;;;;;7366030;19;20022;-60
2022/02/15 07:53:39;;;;;;;4.38;1.40;;;6.60;17.00;;;;;;7387022;19;20018;-59
2022/02/15 07:56:10;;;;;;;3.35;1.15;;;6.60;17.10;;;;;;7364338;19;20382;-60
2022/02/15 07:58:40;;;;;;;2.15;1.42;;;6.70;16.50;;;;;;7364663;19;20013;-60
2022/02/15 08:01:10;;;;;;;2.45;1.17;;;6.70;16.00;;;;;;7364160;19;20113;-60
2022/02/15 08:03:41;;;;;;;2.67;1.35;;;6.80;16.00;;;;;;7366974;19;20085;-59
2022/02/15 08:06:11;;;;;;;2.17;1.60;;;6.80;15.60;;;;;;7366972;19;20015;-60
2022/02/15 08:08:43;;;;;;;26.05;14.05;;;6.80;15.50;;;;;;7385359;19;20006;-60
2022/02/15 08:11:13;;;;;;;3.80;1.42;;;6.90;15.40;;;;;;7362896;19;20086;-59
2022/02/15 08:13:44;;;;;;;3.90;1.50;;;7.00;14.80;;;;;;7368973;19;20006;-59
2022/02/15 08:16:14;;;;;;;2.17;1.35;;;7.00;14.40;;;;;;7364139;19;20018;-59
2022/02/15 08:18:44;;;;;;;2.15;1.38;;;7.00;13.80;;;;;;7365599;19;20074;-61
2022/02/15 08:21:13;;;;;;;1.75;1.00;;;7.00;13.80;;;;;;7365950;19;20356;-61
2022/02/15 08:24:06;;;;;;;1.58;1.10;;;7.00;14.20;;;;;;7366201;19;20019;-60
2022/02/15 08:26:36;;;;;;;2.08;0.95;;;7.00;13.90;;;;;;7384236;19;20066;-60
2022/02/15 08:29:06;;;;;;;1.17;0.90;;;7.10;13.10;;;;;;7364515;19;20509;-60
2022/02/15 08:31:36;;;;;;;6.22;1.30;;;7.10;12.20;;;;;;7363526;19;20025;-61
2022/02/15 08:34:06;;;;;;;3.47;1.27;;;7.00;11.10;;;;;;7366129;19;20471;-61
2022/02/15 08:36:36;;;;;;;3.83;1.23;;;7.10;11.90;;;;;;7364660;19;20014;-61
2022/02/15 08:39:08;;;;;;;3.47;1.20;;;7.10;11.80;;;;;;7363760;19;20026;-60
2022/02/15 08:41:39;;;;;;;2.88;1.20;;;7.00;12.00;;;;;;7384092;19;20019;-60
2022/02/15 08:44:09;;;;;;;2.40;1.27;;;7.00;11.90;;;;;;7368311;19;20526;-60
2022/02/15 08:46:39;;;;;;;3.67;1.60;;;7.10;12.00;;;;;;7362377;19;20015;-60
2022/02/15 08:49:09;;;;;;;4.65;1.42;;;7.20;12.10;;;;;;7363937;19;20488;-60
2022/02/15 08:51:39;;;;;;;4.13;1.77;;;7.20;12.30;;;;;;7363966;19;20014;-60
2022/02/15 08:54:12;;;;;;;3.10;1.50;;;7.20;12.70;;;;;;7365588;19;20475;-60
2022/02/15 08:56:42;;;;;;;3.95;2.22;;;7.20;12.10;;;;;;7384070;19;20017;-59
2022/02/15 08:59:12;;;;;;;3.22;1.85;;;7.40;11.60;;;;;;7364706;19;20459;-59
2022/02/15 09:01:42;;;;;;;2.85;1.50;;;7.50;12.00;;;;;;7361076;19;20031;-60
2022/02/15 09:04:18;;;;;;;9.60;1.83;;;7.50;11.70;;;;;;7365431;19;20455;-60
2022/02/15 09:06:48;;;;;;;2.83;1.80;;;7.50;11.90;;;;;;7364242;19;20019;-61
2022/02/15 09:09:21;;;;;;;3.72;2.38;;;7.60;11.60;;;;;;7364127;19;20070;-61
2022/02/15 09:11:51;;;;;;;5.30;2.28;;;7.50;12.30;;;;;;7360570;19;20018;-61
2022/02/15 09:14:21;;;;;;;5.32;2.50;;;7.60;12.90;;;;;;7388662;19;20707;-61
2022/02/15 09:16:51;;;;;;;4.72;3.40;;;7.40;11.90;;;;;;7363347;19;20579;-59
2022/02/15 09:19:21;;;;;;;5.10;2.97;;;7.40;12.90;;;;;;7362303;19;20013;-62
2022/02/15 09:21:51;;;;;;;4.05;2.97;;;7.60;12.30;;;;;;7363436;19;20032;-61
2022/02/15 09:24:24;;;;;;;4.25;3.20;;;7.70;10.70;;;;;;7365768;19;20150;-61
2022/02/15 09:26:56;;;;;;;4.55;3.20;;;7.60;10.90;;;;;;7360716;19;20534;-60
2022/02/15 09:29:26;;;;;;;4.82;3.33;;;7.70;10.70;;;;;;7384032;19;20015;-61
2022/02/15 09:31:57;;;;;;;4.90;3.30;;;7.80;10.10;;;;;;7363042;19;20007;-61
2022/02/15 09:34:27;;;;;;;5.25;3.78;;;7.90;10.10;;;;;;7363830;19;20007;-60
2022/02/15 09:36:57;;;;;;;6.97;4.00;;;8.00;8.30;;;;;;7361833;19;20012;-60
2022/02/15 09:39:31;;;;;;;5.30;3.67;;;8.20;7.30;;;;;;7362503;19;20006;-60
2022/02/15 09:42:01;;;;;;;9.27;3.58;;;8.40;5.70;;;;;;7360697;19;20035;-60
2022/02/15 09:44:31;;;;;;;6.13;3.92;;;8.40;3.80;;;;;;7386873;19;20082;-60
2022/02/15 09:47:02;;;;;;;7.63;3.72;;;8.20;3.60;;;;;;7362564;19;20418;-61
2022/02/15 09:52:18;;;;;;;;;;;8.60;3.90;;;;;;7363278;19;20015;-60
2022/02/15 09:54:50;;;;;;;4.40;3.20;;;8.60;2.50;;;;;;7366148;19;19903;-60
2022/02/15 09:57:21;;;;;;;8.23;3.75;;;8.70;3.30;;;;;;7362600;19;20408;-60
2022/02/15 09:59:51;;;;;;;5.70;3.20;;;8.50;1.00;;;;;;7361394;19;20007;-61
2022/02/15 10:02:24;;;;;;;7.80;3.05;;;8.90;1.00;;;;;;7382333;19;20086;-60
2022/02/15 10:04:55;;;;;;;5.07;2.75;;;9.10;1.00;;;;;;7355285;19;20006;-61
2022/02/15 10:07:26;;;;;;;6.50;3.00;;;8.70;1.00;;;;;;7358615;19;20021;-60
2022/02/15 10:10:02;;;;;;;4.72;3.30;;;8.90;1.00;;;;;;7362894;19;20039;-60
2022/02/15 10:12:34;;;;;;;9.68;3.75;;;8.70;1.00;;;;;;7358235;19;20006;-60
2022/02/15 10:15:05;;;;;;;4.82;2.78;;;9.10;1.00;;;;;;7365761;19;20611;-60
2022/02/15 10:17:38;;;;;;;5.43;2.60;;;9.10;1.00;;;;;;7382056;19;20029;-60
2022/02/15 10:20:09;;;;;;;7.43;3.60;;;9.00;1.00;;;;;;7361802;19;20017;-60
2022/02/15 10:22:40;;;;;;;3.83;2.80;;;9.20;1.00;;;;;;7359295;19;20165;-60
2022/02/15 10:25:15;;;;;;;4.28;2.58;;;8.90;1.00;;;;;;7362949;19;20010;-60
2022/02/15 10:27:48;;;;;;;5.88;2.40;;;9.20;1.00;;;;;;7355334;19;20069;-60
2022/02/15 10:30:29;;;;;;;3.92;2.17;;;9.60;1.00;;;;;;7360631;19;20014;-61
2022/02/15 10:33:02;;;;;;;5.82;1.92;;;9.60;1.00;;;;;;7356727;19;20074;-61
2022/02/15 10:35:32;;;;;;;4.43;2.05;;;9.80;1.00;;;;;;7381445;19;20029;-61
2022/02/15 10:38:03;;;;;;;8.25;2.20;;;9.30;1.00;;;;;;7355544;19;20015;-61
2022/02/15 10:40:36;;;;;;;3.10;1.80;;;8.70;1.00;;;;;;7365538;19;20031;-59
2022/02/15 10:43:06;;;;;;;4.07;2.08;;;8.60;1.00;;;;;;7360092;19;20021;-61
2022/02/15 10:45:36;;;;;;;6.15;3.00;;;8.70;1.00;;;;;;7359973;19;20018;-59
2022/02/15 10:48:09;;;;;;;4.63;2.25;;;8.40;1.00;;;;;;7357863;19;20467;-60
2022/02/15 10:50:40;;;;;;;4.65;2.58;;;8.40;1.00;;;;;;7380674;19;20451;-60
2022/02/15 10:53:11;;;;;;;3.55;2.00;;;8.40;1.00;;;;;;7357570;19;20528;-60
2022/02/15 10:55:44;;;;;;;4.20;2.30;;;8.20;1.00;;;;;;7362575;19;20027;-59
2022/02/15 10:58:14;;;;;;;6.88;2.33;;;7.90;1.00;;;;;;7355082;19;20017;-60
2022/02/15 11:00:44;;;;;;;3.92;2.50;;;7.90;1.00;;;;;;7361656;19;20027;-60
2022/02/15 11:03:15;;;;;;;2.92;2.22;;;7.90;1.00;;;;;;7359932;19;20013;-59
2022/02/15 11:05:48;;;;;;;5.38;2.53;;;8.10;1.00;;;;;;7360612;19;20014;-63
2022/02/15 11:08:19;;;;;;;7.25;2.53;;;8.10;1.00;;;;;;7379743;19;20083;-60
2022/02/15 11:10:57;;;;;;;5.70;2.47;;;8.10;1.00;;;;;;7363210;19;20014;-60
2022/02/15 11:13:27;;;;;;;6.90;2.88;;;8.40;1.00;;;;;;7360591;19;20523;-60
2022/02/15 11:16:01;;;;;;;3.85;2.50;;;8.30;1.00;;;;;;7360451;19;20021;-61
2022/02/15 11:18:34;;;;;;;6.30;2.60;;;8.10;1.00;;;;;;7360091;19;20101;-59
2022/02/15 11:21:06;;;;;;;5.70;2.92;;;8.30;1.00;;;;;;7356462;19;20033;-60
2022/02/15 11:23:40;;;;;;;4.88;3.10;;;8.30;1.00;;;;;;7381625;19;20015;-60
2022/02/15 11:26:17;;;;;;;7.50;3.05;;;8.30;1.00;;;;;;7358935;19;20035;-60
2022/02/15 11:28:50;;;;;;;6.43;2.60;;;8.60;1.00;;;;;;7357682;19;20031;-61
2022/02/15 11:31:28;;;;;;;4.18;2.45;;;8.80;1.00;;;;;;7356210;19;20027;-60
2022/02/15 11:33:59;;;;;;;3.72;2.20;;;8.80;1.00;;;;;;7363362;19;20475;-61
2022/02/15 11:36:29;;;;;;;3.58;1.83;;;9.10;1.00;;;;;;7361028;19;20056;-60
2022/02/15 11:39:02;;;;;;;4.30;1.55;;;8.70;1.00;;;;;;7354961;19;20770;-60
2022/02/15 11:41:46;;;;;;;4.68;1.60;;;8.70;1.00;;;;;;7379834;19;20035;-60
2022/02/15 11:44:16;;;;;;;5.07;1.80;;;8.70;1.00;;;;;;7363097;19;20011;-60
2022/02/15 11:46:47;;;;;;;2.25;1.50;;;8.50;1.00;;;;;;7357378;19;20014;-60
2022/02/15 11:49:19;;;;;;;2.10;1.63;;;8.90;1.00;;;;;;7357131;19;20014;-60
2022/02/15 11:51:52;;;;;;;2.42;1.30;;;8.80;1.00;;;;;;7357277;19;20090;-60
2022/02/15 11:54:26;;;;;;;4.88;2.10;;;8.80;1.00;;;;;;7358955;19;20027;-59
2022/02/15 11:56:58;;;;;;;2.30;1.80;;;8.60;1.00;;;;;;7358251;19;20028;-60
2022/02/15 11:59:29;;;;;;;3.67;1.88;;;8.70;1.00;;;;;;7378509;19;20039;-60
2022/02/15 12:02:02;;;;;;;4.15;1.88;;;8.60;1.00;;;;;;7352756;19;20014;-59
2022/02/15 12:04:32;;;;;;;3.55;1.77;;;8.50;1.00;;;;;;7359492;19;20507;-59
2022/02/15 12:07:03;;;;;;;2.97;2.00;;;8.50;1.00;;;;;;7359212;19;20446;-60
2022/02/15 12:09:38;;;;;;;5.10;2.10;;;8.70;1.00;;;;;;7354700;19;20014;-59
2022/02/15 12:12:17;;;;;;;8.05;2.13;;;8.70;1.00;;;;;;7355917;19;20014;-59
2022/02/15 12:14:56;;;;;;;11.82;2.97;;;8.80;1.00;;;;;;7361033;19;20014;-60
2022/02/15 12:17:27;;;;;;;3.70;1.90;;;8.90;1.00;;;;;;7379077;19;20015;-59
2022/02/15 12:20:10;;;;;;;4.32;1.90;;;8.80;1.00;;;;;;7357703;19;20015;-59
2022/02/15 12:22:42;;;;;;;1.92;1.52;;;9.10;1.00;;;;;;7356073;19;20805;-60
2022/02/15 12:25:13;;;;;;;2.97;1.73;;;9.30;1.00;;;;;;7361204;19;20014;-59
2022/02/15 12:27:48;;;;;;;4.43;2.10;;;9.20;1.00;;;;;;7352549;19;20044;-60
2022/02/15 12:30:20;;;;;;;2.85;1.90;;;9.10;1.00;;;;;;7361354;19;20022;-59
2022/02/15 12:32:51;;;;;;;3.80;1.70;;;9.00;1.00;;;;;;7355263;19;20494;-59
2022/02/15 12:35:28;;;;;;;6.03;1.80;;;9.10;1.00;;;;;;7377922;19;20018;-59
2022/02/15 12:38:00;;;;;;;3.95;1.75;;;9.10;1.00;;;;;;7361464;19;20034;-59
2022/02/15 12:40:30;;;;;;;6.57;2.25;;;8.80;1.00;;;;;;7367246;19;20010;-60
2022/02/15 12:43:04;;;;;;;6.70;2.22;;;8.80;1.00;;;;;;7361755;19;20077;-60
2022/02/15 12:45:45;;;;;;;2.53;1.83;;;9.00;1.00;;;;;;7367804;19;20070;-59
2022/02/15 12:48:15;;;;;;;5.80;2.45;;;9.10;1.00;;;;;;7362523;19;20015;-60
2022/02/15 12:50:46;;;;;;;7.70;2.20;;;9.00;1.00;;;;;;7366144;19;20474;-60
2022/02/15 12:53:15;;;;;;;5.97;2.30;;;8.80;1.00;;;;;;7383700;19;20014;-60
2022/02/15 12:55:52;;;;;;;5.25;2.40;;;8.80;1.00;;;;;;7368178;19;20011;-60
2022/02/15 12:58:25;;;;;;;3.90;1.98;;;9.10;1.00;;;;;;7357704;19;20416;-60
2022/02/15 13:01:00;;;;;;;3.53;1.70;;;9.00;1.00;;;;;;7364213;19;20074;-60
2022/02/15 13:03:35;;;;;;;4.07;2.40;;;9.10;1.00;;;;;;7367284;19;20534;-61
2022/02/15 13:06:14;;;;;;;4.50;2.40;;;8.90;1.00;;;;;;7363457;19;20007;-61
2022/02/15 13:08:46;;;;;;;7.00;2.40;;;8.90;1.00;;;;;;7371465;19;20489;-60
2022/02/15 13:11:17;;;;;;;4.40;2.53;;;9.10;1.00;;;;;;7384509;19;20094;-59
2022/02/15 13:13:49;;;;;;;3.55;2.22;;;8.70;1.00;;;;;;7363151;19;20459;-60
2022/02/15 13:16:19;;;;;;;4.13;1.98;;;8.70;1.00;;;;;;7362131;19;20090;-60
2022/02/15 13:18:50;;;;;;;11.75;2.30;;;8.20;1.00;;;;;;7363534;19;20011;-60
2022/02/15 13:21:22;;;;;;;2.92;1.70;;;8.40;1.00;;;;;;7358987;19;20451;-59
2022/02/15 13:24:01;;;;;;;3.60;1.38;;;8.00;1.00;;;;;;7364741;19;20651;-61
2022/02/15 13:26:32;;;;;;;3.28;2.00;;;8.00;1.00;;;;;;7380429;19;20014;-61
2022/02/15 13:29:06;;;;;;;2.20;1.77;;;7.60;1.00;;;;;;7354156;19;20006;-60
2022/02/15 13:31:51;;;;;;;3.13;1.63;;;7.40;1.00;;;;;;7356289;19;20467;-60